createdAt,value
2018-09-02T00:00:53.484Z,101133.94
2018-09-02T00:03:22.329Z,101126.07
2018-09-02T00:05:51.051Z,101131.68
2018-09-02T00:08:19.669Z,101130.85
2018-09-02T00:10:48.552Z,101130.05
2018-09-02T00:13:17.299Z,101125.50
2018-09-02T00:15:46.010Z,101131.76
2018-09-02T00:18:14.734Z,101128.87
2018-09-02T00:20:43.362Z,101127.95
2018-09-02T00:23:12.150Z,101126.70
2018-09-02T00:25:40.992Z,101118.19
2018-09-02T00:28:09.838Z,101122.36
2018-09-02T00:30:38.775Z,101128.59
2018-09-02T00:33:07.727Z,101123.96
2018-09-02T00:35:36.622Z,101120.69
2018-09-02T00:38:05.640Z,101124.55
2018-09-02T00:40:34.738Z,101127.47
2018-09-02T00:43:03.675Z,101121.48
2018-09-02T00:45:32.361Z,101122.84
2018-09-02T00:48:01.154Z,101127.82
2018-09-02T00:50:29.837Z,101125.11
2018-09-02T00:52:58.563Z,101122.14
2018-09-02T00:55:27.465Z,101120.62
2018-09-02T00:57:56.394Z,101122.56
2018-09-02T01:00:25.502Z,101122.05
2018-09-02T01:02:54.496Z,101116.16
2018-09-02T01:05:23.521Z,101120.95
2018-09-02T01:07:52.293Z,101116.78
2018-09-02T01:10:21.178Z,101130.66
2018-09-02T01:12:50.050Z,101136.80
2018-09-02T01:15:18.702Z,101129.05
2018-09-02T01:17:47.981Z,101134.18
2018-09-02T01:20:16.724Z,101127.77
2018-09-02T01:22:45.418Z,101129.78
2018-09-02T01:25:14.321Z,101134.72
2018-09-02T01:27:42.968Z,101136.00
2018-09-02T01:30:11.994Z,101134.69
2018-09-02T01:32:40.890Z,101128.11
2018-09-02T01:35:14.098Z,101129.31
2018-09-02T01:37:42.756Z,101130.39
2018-09-02T01:40:11.566Z,101126.69
2018-09-02T01:42:40.514Z,101126.09
2018-09-02T01:45:09.284Z,101124.56
2018-09-02T01:47:38.399Z,101125.40
2018-09-02T01:50:07.198Z,101127.83
2018-09-02T01:52:35.894Z,101130.31
2018-09-02T01:55:04.654Z,101130.12
2018-09-02T01:57:33.272Z,101128.08
2018-09-02T02:00:02.159Z,101131.55
2018-09-02T02:02:31.030Z,101128.36
2018-09-02T02:04:59.734Z,101118.70
2018-09-02T02:07:28.656Z,101123.67
2018-09-02T02:09:57.609Z,101115.34
2018-09-02T02:12:26.426Z,101119.18
2018-09-02T02:14:55.139Z,101122.63
2018-09-02T02:17:23.853Z,101121.44
2018-09-02T02:19:52.548Z,101125.14
2018-09-02T02:22:21.286Z,101115.42
2018-09-02T02:24:50.219Z,101123.11
2018-09-02T02:27:18.931Z,101117.54
2018-09-02T02:29:47.640Z,101116.27
2018-09-02T02:32:16.532Z,101115.50
2018-09-02T02:34:45.393Z,101111.37
2018-09-02T02:37:14.499Z,101112.29
2018-09-02T02:39:43.162Z,101114.23
2018-09-02T02:42:12.048Z,101111.13
2018-09-02T02:44:40.730Z,101102.80
2018-09-02T02:47:09.679Z,101104.05
2018-09-02T02:49:38.622Z,101105.78
2018-09-02T02:52:07.438Z,101097.20
2018-09-02T02:54:36.514Z,101100.84
2018-09-02T02:57:05.468Z,101098.27
2018-09-02T02:59:34.186Z,101086.91
2018-09-02T03:02:03.268Z,101089.08
2018-09-02T03:04:31.873Z,101082.64
2018-09-02T03:07:00.661Z,101076.64
2018-09-02T03:09:29.619Z,101076.25
2018-09-02T03:11:58.380Z,101075.83
2018-09-02T03:14:27.586Z,101088.16
2018-09-02T03:16:56.713Z,101090.38
2018-09-02T03:19:25.447Z,101089.73
2018-09-02T03:21:54.356Z,101089.70
2018-09-02T03:24:23.006Z,101089.10
2018-09-02T03:26:51.723Z,101080.33
2018-09-02T03:29:20.430Z,101068.67
2018-09-02T03:31:49.338Z,101072.78
2018-09-02T03:34:18.074Z,101079.31
2018-09-02T03:36:46.782Z,101088.81
2018-09-02T03:39:15.680Z,101082.02
2018-09-02T03:41:45.167Z,101081.22
2018-09-02T03:44:15.843Z,101076.78
2018-09-02T03:46:44.844Z,101077.10
2018-09-02T03:49:13.590Z,101076.89
2018-09-02T03:51:42.670Z,101073.30
2018-09-02T03:54:11.437Z,101073.47
2018-09-02T03:56:40.616Z,101075.31
2018-09-02T03:59:09.275Z,101072.98
2018-09-02T04:01:37.946Z,101065.64
2018-09-02T04:04:06.639Z,101069.09
2018-09-02T04:06:35.298Z,101067.60
2018-09-02T04:09:05.237Z,101069.19
2018-09-02T04:11:34.552Z,101064.65
2018-09-02T04:14:03.505Z,101065.47
2018-09-02T04:16:32.193Z,101065.33
2018-09-02T04:19:00.949Z,101066.25
2018-09-02T04:21:30.246Z,101059.40
2018-09-02T04:23:58.894Z,101057.09
2018-09-02T04:26:27.819Z,101061.25
2018-09-02T04:28:56.523Z,101059.88
2018-09-02T04:31:25.234Z,101061.38
2018-09-02T04:33:54.081Z,101060.69
2018-09-02T04:36:22.836Z,101063.86
2018-09-02T04:38:51.593Z,101063.30
2018-09-02T04:41:20.529Z,101064.47
2018-09-02T04:43:49.576Z,101063.76
2018-09-02T04:46:18.199Z,101068.84
2018-09-02T04:48:47.122Z,101067.44
2018-09-02T04:51:16.014Z,101067.96
2018-09-02T04:53:44.797Z,101066.32
2018-09-02T04:56:13.825Z,101063.26
2018-09-02T04:58:42.475Z,101063.77
2018-09-02T05:01:11.245Z,101064.65
2018-09-02T05:03:40.390Z,101064.32
2018-09-02T05:06:09.001Z,101064.32
2018-09-02T05:08:37.914Z,101060.13
2018-09-02T05:11:06.667Z,101050.80
2018-09-02T05:13:35.350Z,101054.86
2018-09-02T05:16:04.031Z,101050.70
2018-09-02T05:18:32.758Z,101055.59
2018-09-02T05:21:01.373Z,101060.91
2018-09-02T05:23:30.024Z,101059.73
2018-09-02T05:25:58.883Z,101060.25
2018-09-02T05:28:27.571Z,101055.77
2018-09-02T05:30:56.484Z,101063.10
2018-09-02T05:33:25.085Z,101065.47
2018-09-02T05:35:54.000Z,101063.55
2018-09-02T05:38:22.618Z,101055.62
2018-09-02T05:40:51.266Z,101065.43
2018-09-02T05:43:19.893Z,101062.97
2018-09-02T05:45:48.690Z,101072.98
2018-09-02T05:48:17.625Z,101070.65
2018-09-02T05:50:46.514Z,101069.55
2018-09-02T05:53:15.178Z,101068.79
2018-09-02T05:55:44.109Z,101074.80
2018-09-02T05:58:12.774Z,101077.06
2018-09-02T06:00:41.506Z,101074.07
2018-09-02T06:03:10.306Z,101073.70
2018-09-02T06:05:39.166Z,101078.03
2018-09-02T06:08:07.810Z,101082.61
2018-09-02T06:10:36.539Z,101078.36
2018-09-02T06:13:05.282Z,101076.08
2018-09-02T06:15:34.346Z,101081.13
2018-09-02T06:18:03.323Z,101078.31
2018-09-02T06:20:31.993Z,101078.48
2018-09-02T06:23:00.702Z,101077.28
2018-09-02T06:25:29.397Z,101079.06
2018-09-02T06:27:58.044Z,101073.52
2018-09-02T06:30:26.945Z,101074.46
2018-09-02T06:32:55.720Z,101074.09
2018-09-02T06:35:24.754Z,101072.78
2018-09-02T06:37:53.498Z,101078.97
2018-09-02T06:40:22.218Z,101079.97
2018-09-02T06:42:50.870Z,101048.53
2018-09-02T06:45:19.573Z,101085.23
2018-09-02T06:47:48.373Z,101081.28
2018-09-02T06:50:17.354Z,101082.42
2018-09-02T06:52:45.998Z,101084.36
2018-09-02T06:55:14.857Z,101072.32
2018-09-02T06:57:43.475Z,101073.55
2018-09-02T07:00:12.169Z,101072.97
2018-09-02T07:02:40.879Z,101069.89
2018-09-02T07:05:09.701Z,101076.33
2018-09-02T07:07:38.615Z,101072.88
2018-09-02T07:10:07.277Z,101064.39
2018-09-02T07:12:36.237Z,101069.09
2018-09-02T07:15:05.205Z,101073.54
2018-09-02T07:17:33.925Z,101071.95
2018-09-02T07:20:02.873Z,101069.50
2018-09-02T07:22:31.891Z,101065.79
2018-09-02T07:25:00.692Z,101073.97
2018-09-02T07:27:29.689Z,101075.64
2018-09-02T07:29:58.281Z,101061.28
2018-09-02T07:32:27.199Z,101067.52
2018-09-02T07:34:55.817Z,101065.95
2018-09-02T07:37:24.634Z,101062.29
2018-09-02T07:39:53.274Z,101061.75
2018-09-02T07:42:22.445Z,101070.08
2018-09-02T07:44:51.214Z,101059.22
2018-09-02T07:47:20.111Z,101062.69
2018-09-02T07:49:48.845Z,101062.88
2018-09-02T07:52:17.699Z,101060.64
2018-09-02T07:54:46.373Z,101064.34
2018-09-02T07:57:15.062Z,101054.98
2018-09-02T07:59:43.978Z,101056.19
2018-09-02T08:02:12.608Z,101057.83
2018-09-02T08:04:41.650Z,101052.70
2018-09-02T08:07:10.407Z,101045.83
2018-09-02T08:09:39.096Z,101046.14
2018-09-02T08:12:07.834Z,101045.45
2018-09-02T08:14:41.993Z,101046.63
2018-09-02T08:17:48.843Z,101049.67
2018-09-02T08:20:19.504Z,101049.95
2018-09-02T08:22:50.431Z,101045.83
2018-09-02T08:25:19.086Z,101039.21
2018-09-02T08:27:48.726Z,101038.95
2018-09-02T08:30:17.562Z,101040.62
2018-09-02T08:32:46.265Z,101039.76
2018-09-02T08:38:01.648Z,101033.72
2018-09-02T08:40:30.626Z,101029.64
2018-09-02T08:43:01.227Z,101029.35
2018-09-02T08:45:30.240Z,101021.83
2018-09-02T08:47:58.981Z,101022.66
2018-09-02T08:50:28.932Z,101013.29
2018-09-02T08:52:57.967Z,101016.26
2018-09-02T08:55:26.588Z,101017.33
2018-09-02T08:58:14.498Z,101019.66
2018-09-02T09:00:43.161Z,101011.02
2018-09-02T09:03:11.840Z,101009.90
2018-09-02T09:05:40.449Z,101000.91
2018-09-02T09:08:10.829Z,101003.72
2018-09-02T09:10:39.334Z,101002.16
2018-09-02T09:13:08.330Z,100994.84
2018-09-02T09:15:38.206Z,100997.74
2018-09-02T09:18:20.522Z,101002.64
2018-09-02T09:20:49.406Z,100994.53
2018-09-02T09:23:19.598Z,100994.79
2018-09-02T09:25:48.609Z,100997.85
2018-09-02T09:28:17.265Z,100996.71
2018-09-02T09:30:45.920Z,100993.41
2018-09-02T09:33:14.596Z,100985.45
2018-09-02T09:35:43.216Z,100985.31
2018-09-02T09:38:11.871Z,100985.59
2018-09-02T09:40:55.392Z,100986.98
2018-09-02T09:43:25.342Z,100984.82
2018-09-02T09:45:54.276Z,100981.12
2018-09-02T09:48:29.301Z,100986.31
2018-09-02T09:50:58.862Z,100984.35
2018-09-02T09:53:27.538Z,100974.00
2018-09-02T09:55:56.250Z,100980.31
2018-09-02T09:58:24.911Z,100963.62
2018-09-02T10:00:53.599Z,100972.13
2018-09-02T10:03:22.601Z,100970.66
2018-09-02T10:05:51.820Z,100961.60
2018-09-02T10:08:20.467Z,100956.20
2018-09-02T10:10:49.131Z,100960.58
2018-09-02T10:13:18.189Z,100962.69
2018-09-02T10:15:47.666Z,100956.38
2018-09-02T10:18:16.889Z,100951.05
2018-09-02T10:20:46.546Z,100946.33
2018-09-02T10:23:37.503Z,100949.86
2018-09-02T10:26:06.383Z,100941.87
2018-09-02T10:29:01.289Z,100932.75
2018-09-02T10:31:30.975Z,100937.14
2018-09-02T10:33:59.727Z,100930.19
2018-09-02T10:39:29.537Z,100931.59
2018-09-02T10:44:51.991Z,100919.48
2018-09-02T10:47:31.556Z,100915.48
2018-09-02T10:50:00.786Z,100913.75
2018-09-02T10:52:33.699Z,100905.38
2018-09-02T10:58:45.158Z,100898.37
2018-09-02T11:01:13.846Z,100899.09
2018-09-02T11:03:43.668Z,100901.47
2018-09-02T11:06:14.733Z,100894.50
2018-09-02T11:08:43.609Z,100898.45
2018-09-02T11:11:12.292Z,100892.96
2018-09-02T11:14:16.821Z,100899.59
2018-09-02T11:16:45.637Z,100885.14
2018-09-02T11:19:14.826Z,100883.55
2018-09-02T11:21:44.963Z,100884.27
2018-09-02T11:24:14.927Z,100888.88
2018-09-02T11:26:43.677Z,100882.25
2018-09-02T11:29:12.225Z,100884.40
2018-09-02T11:31:40.649Z,100883.12
2018-09-02T11:34:09.195Z,100875.97
2018-09-02T11:36:37.593Z,100872.98
2018-09-02T11:39:08.357Z,100870.84
2018-09-02T11:41:36.749Z,100866.87
2018-09-02T11:44:05.202Z,100865.34
2018-09-02T11:46:33.634Z,100865.78
2018-09-02T11:49:02.114Z,100861.36
2018-09-02T11:51:30.717Z,100859.72
2018-09-02T11:53:59.150Z,100857.28
2018-09-02T11:56:27.830Z,100854.33
2018-09-02T11:58:56.292Z,100850.16
2018-09-02T12:01:25.854Z,100840.38
2018-09-02T12:03:54.304Z,100844.09
2018-09-02T12:06:22.733Z,100844.78
2018-09-02T12:08:51.180Z,100834.28
2018-09-02T12:11:19.755Z,100835.06
2018-09-02T12:13:48.217Z,100835.73
2018-09-02T12:16:16.642Z,100831.82
2018-09-02T12:18:45.067Z,100830.91
2018-09-02T12:21:13.536Z,100836.04
2018-09-02T12:23:41.945Z,100837.06
2018-09-02T12:26:11.388Z,100834.34
2018-09-02T12:28:39.833Z,100832.83
2018-09-02T12:31:08.286Z,100834.80
2018-09-02T12:33:36.730Z,100832.77
2018-09-02T12:36:07.717Z,100816.20
2018-09-02T12:38:36.364Z,100823.11
2018-09-02T12:41:04.830Z,100819.36
2018-09-02T12:43:33.354Z,100813.61
2018-09-02T12:46:01.818Z,100810.91
2018-09-02T12:48:30.420Z,100814.66
2018-09-02T12:50:58.852Z,100805.36
2018-09-02T12:53:27.340Z,100797.22
2018-09-02T12:55:55.792Z,100804.56
2018-09-02T12:58:24.308Z,100803.19
2018-09-02T13:00:52.733Z,100797.25
2018-09-02T13:03:21.254Z,100795.70
2018-09-02T13:05:49.679Z,100791.23
2018-09-02T13:08:18.114Z,100795.80
2018-09-02T13:10:46.597Z,100791.31
2018-09-02T13:13:15.018Z,100786.67
2018-09-02T13:15:43.456Z,100788.77
2018-09-02T13:18:11.873Z,100778.95
2018-09-02T13:20:40.319Z,100783.59
2018-09-02T13:23:08.813Z,100779.03
2018-09-02T13:25:37.305Z,100780.19
2018-09-02T13:28:07.233Z,100775.45
2018-09-02T13:30:35.697Z,100776.03
2018-09-02T13:33:04.134Z,100775.11
2018-09-02T13:35:32.829Z,100773.30
2018-09-02T13:38:01.225Z,100765.98
2018-09-02T13:40:30.902Z,100764.38
2018-09-02T13:42:59.370Z,100766.25
2018-09-02T13:45:27.941Z,100765.37
2018-09-02T13:47:56.711Z,100757.36
2018-09-02T13:50:25.233Z,100752.48
2018-09-02T13:52:53.665Z,100748.70
2018-09-02T13:55:22.103Z,100754.77
2018-09-02T13:57:50.548Z,100747.58
2018-09-02T14:00:19.066Z,100746.20
2018-09-02T14:02:47.625Z,100741.34
2018-09-02T14:05:16.133Z,100742.50
2018-09-02T14:07:45.380Z,100740.06
2018-09-02T14:10:13.889Z,100738.39
2018-09-02T14:12:44.194Z,100730.73
2018-09-02T14:15:14.310Z,100732.45
2018-09-02T14:17:43.760Z,100726.53
2018-09-02T14:20:13.507Z,100716.77
2018-09-02T14:22:44.494Z,100717.79
2018-09-02T14:25:13.518Z,100717.56
2018-09-02T14:27:43.822Z,100715.27
2018-09-02T14:30:13.194Z,100713.34
2018-09-02T14:32:42.345Z,100705.05
2018-09-02T14:35:11.879Z,100707.55
2018-09-02T14:37:44.285Z,100707.28
2018-09-02T14:40:13.834Z,100701.73
2018-09-02T14:42:45.751Z,100698.42
2018-09-02T14:45:14.671Z,100699.14
2018-09-02T14:47:43.694Z,100692.55
2018-09-02T14:50:13.443Z,100691.67
2018-09-02T14:52:43.077Z,100687.63
2018-09-02T14:55:13.195Z,100682.91
2018-09-02T14:57:42.192Z,100686.94
2018-09-02T15:00:13.188Z,100678.28
2018-09-02T15:02:41.919Z,100691.02
2018-09-02T15:05:12.251Z,100690.70
2018-09-02T15:07:44.814Z,100691.25
2018-09-02T15:10:13.910Z,100689.16
2018-09-02T15:12:45.026Z,100682.48
2018-09-02T15:15:15.246Z,100685.06
2018-09-02T15:17:44.797Z,100686.55
2018-09-02T15:20:14.254Z,100682.25
2018-09-02T15:22:43.619Z,100678.38
2018-09-02T15:25:13.536Z,100677.46
2018-09-02T15:27:43.705Z,100677.55
2018-09-02T15:30:13.529Z,100674.08
2018-09-02T15:32:43.458Z,100671.89
2018-09-02T15:35:18.081Z,100668.13
2018-09-02T15:37:47.643Z,100671.05
2018-09-02T15:40:17.248Z,100671.10
2018-09-02T15:42:46.711Z,100671.48
2018-09-02T15:45:16.535Z,100663.92
2018-09-02T15:47:45.751Z,100659.67
2018-09-02T15:50:15.132Z,100662.34
2018-09-02T15:52:48.644Z,100657.27
2018-09-02T15:55:18.223Z,100658.61
2018-09-02T15:57:47.473Z,100658.17
2018-09-02T16:00:18.834Z,100652.62
2018-09-02T16:02:48.113Z,100656.95
2018-09-02T16:05:17.536Z,100656.77
2018-09-02T16:07:46.254Z,100655.25
2018-09-02T16:10:15.999Z,100656.50
2018-09-02T16:12:45.770Z,100658.06
2018-09-02T16:15:15.369Z,100652.99
2018-09-02T16:17:45.005Z,100649.19
2018-09-02T16:20:14.092Z,100650.30
2018-09-02T16:22:43.612Z,100646.66
2018-09-02T16:25:13.496Z,100648.94
2018-09-02T16:27:43.031Z,100655.13
2018-09-02T16:30:11.920Z,100648.50
2018-09-02T16:32:40.858Z,100641.92
2018-09-02T16:35:10.390Z,100645.73
2018-09-02T16:37:39.968Z,100641.02
2018-09-02T16:40:08.950Z,100642.50
2018-09-02T16:42:39.270Z,100644.79
2018-09-02T16:45:08.077Z,100637.74
2018-09-02T16:47:37.066Z,100642.86
2018-09-02T16:50:06.574Z,100645.70
2018-09-02T16:52:36.479Z,100636.02
2018-09-02T16:55:07.343Z,100648.16
2018-09-02T16:57:37.126Z,100638.96
2018-09-02T17:00:06.466Z,100634.09
2018-09-02T17:02:35.957Z,100635.02
2018-09-02T17:05:07.200Z,100629.92
2018-09-02T17:07:36.345Z,100630.26
2018-09-02T17:10:06.289Z,100635.25
2018-09-02T17:12:37.481Z,100625.67
2018-09-02T17:15:07.866Z,100630.24
2018-09-02T17:17:37.103Z,100624.04
2018-09-02T17:20:09.801Z,100627.73
2018-09-02T17:22:39.242Z,100623.09
2018-09-02T17:25:08.330Z,100612.17
2018-09-02T17:27:38.238Z,100617.92
2018-09-02T17:30:07.129Z,100613.67
2018-09-02T17:32:37.545Z,100615.88
2018-09-02T17:35:07.355Z,100617.44
2018-09-02T17:37:40.893Z,100618.66
2018-09-02T17:40:10.551Z,100621.03
2018-09-02T17:42:39.863Z,100618.16
2018-09-02T17:45:11.029Z,100624.34
2018-09-02T17:47:40.488Z,100623.72
2018-09-02T17:50:10.525Z,100622.06
2018-09-02T17:52:40.862Z,100613.74
2018-09-02T17:55:11.636Z,100619.76
2018-09-02T17:57:41.826Z,100616.00
2018-09-02T18:00:12.757Z,100621.35
2018-09-02T18:02:42.211Z,100616.81
2018-09-02T18:05:11.583Z,100619.41
2018-09-02T18:07:41.080Z,100621.52
2018-09-02T18:10:10.856Z,100622.12
2018-09-02T18:12:40.000Z,100626.63
2018-09-02T18:15:09.741Z,100641.64
2018-09-02T18:17:41.637Z,100637.23
2018-09-02T18:20:10.181Z,100640.98
2018-09-02T18:22:39.375Z,100638.33
2018-09-02T18:25:08.703Z,100637.96
2018-09-02T18:27:40.834Z,100642.09
2018-09-02T18:30:11.829Z,100644.91
2018-09-02T18:32:41.129Z,100648.98
2018-09-02T18:35:10.168Z,100647.92
2018-09-02T18:37:43.781Z,100650.54
2018-09-02T18:40:16.813Z,100652.70
2018-09-02T18:42:45.681Z,100655.30
2018-09-02T18:45:15.348Z,100662.74
2018-09-02T18:47:44.570Z,100660.05
2018-09-02T18:52:47.524Z,100665.44
2018-09-02T18:55:16.394Z,100667.59
2018-09-02T18:57:46.273Z,100670.56
2018-09-02T19:00:19.948Z,100666.86
2018-09-02T19:02:50.118Z,100663.33
2018-09-02T19:05:20.000Z,100660.80
2018-09-02T19:07:48.945Z,100669.14
2018-09-02T19:10:18.429Z,100667.37
2018-09-02T19:12:48.672Z,100670.52
2018-09-02T19:15:21.918Z,100664.23
2018-09-02T19:17:52.162Z,100661.32
2018-09-02T19:20:22.301Z,100666.19
2018-09-02T19:22:52.078Z,100659.08
2018-09-02T19:25:21.013Z,100661.55
2018-09-02T19:27:50.300Z,100662.73
2018-09-02T19:30:20.153Z,100660.61
2018-09-02T19:32:49.497Z,100668.36
2018-09-02T19:35:19.134Z,100665.21
2018-09-02T19:37:48.078Z,100666.87
2018-09-02T19:40:17.503Z,100663.32
2018-09-02T19:42:46.597Z,100664.90
2018-09-02T19:45:15.706Z,100657.55
2018-09-02T19:47:46.117Z,100649.56
2018-09-02T19:50:15.347Z,100645.23
2018-09-02T19:52:44.457Z,100650.23
2018-09-02T19:55:14.289Z,100651.25
2018-09-02T19:57:42.934Z,100645.28
2018-09-02T20:00:13.709Z,100643.70
2018-09-02T20:02:43.915Z,100641.85
2018-09-02T20:05:13.929Z,100646.30
2018-09-02T20:07:43.000Z,100648.38
2018-09-02T20:10:12.307Z,100641.66
2018-09-02T20:12:41.913Z,100636.19
2018-09-02T20:15:12.483Z,100637.09
2018-09-02T20:17:42.533Z,100636.14
2018-09-02T20:20:11.291Z,100629.47
2018-09-02T20:22:40.187Z,100630.13
2018-09-02T20:25:09.793Z,100619.91
2018-09-02T20:27:38.597Z,100616.02
2018-09-02T20:30:09.076Z,100618.50
2018-09-02T20:32:38.145Z,100613.69
2018-09-02T20:35:07.844Z,100616.69
2018-09-02T20:37:36.745Z,100621.91
2018-09-02T20:40:07.175Z,100615.38
2018-09-02T20:42:37.110Z,100618.76
2018-09-02T20:45:07.654Z,100617.70
2018-09-02T20:47:37.309Z,100617.18
2018-09-02T20:50:07.312Z,100617.77
2018-09-02T20:52:36.985Z,100612.86
2018-09-02T20:55:05.859Z,100612.38
2018-09-02T20:57:35.157Z,100612.09
2018-09-02T21:00:04.552Z,100612.38
2018-09-02T21:02:34.122Z,100611.38
2018-09-02T21:05:03.765Z,100612.44
2018-09-02T21:07:33.277Z,100615.70
2018-09-02T21:10:02.004Z,100609.94
2018-09-02T21:12:31.280Z,100611.62
2018-09-02T21:14:59.699Z,100610.86
2018-09-02T21:17:28.098Z,100611.41
2018-09-02T21:19:56.531Z,100612.92
2018-09-02T21:22:24.933Z,100609.66
2018-09-02T21:24:53.337Z,100614.64
2018-09-02T21:27:21.742Z,100617.66
2018-09-02T21:29:50.161Z,100613.05
2018-09-02T21:32:18.574Z,100610.06
2018-09-02T21:34:47.029Z,100610.30
2018-09-02T21:37:15.463Z,100607.90
2018-09-02T21:39:43.864Z,100601.03
2018-09-02T21:42:12.270Z,100595.29
2018-09-02T21:44:40.722Z,100587.62
2018-09-02T21:47:09.144Z,100587.87
2018-09-02T21:49:37.593Z,100592.30
2018-09-02T21:52:06.131Z,100592.64
2018-09-02T21:54:35.465Z,100593.83
2018-09-02T21:57:03.864Z,100594.44
2018-09-02T21:59:32.344Z,100593.59
2018-09-02T22:02:00.799Z,100592.00
2018-09-02T22:04:29.260Z,100588.70
2018-09-02T22:06:57.738Z,100582.08
2018-09-02T22:09:26.217Z,100580.52
2018-09-02T22:11:54.651Z,100584.44
2018-09-02T22:14:23.103Z,100585.50
2018-09-02T22:16:51.562Z,100576.73
2018-09-02T22:19:20.066Z,100577.05
2018-09-02T22:21:48.545Z,100575.36
2018-09-02T22:24:17.041Z,100570.55
2018-09-02T22:26:45.453Z,100578.87
2018-09-02T22:29:13.958Z,100578.08
2018-09-02T22:31:42.377Z,100576.05
2018-09-02T22:34:10.816Z,100574.02
2018-09-02T22:36:39.232Z,100576.91
2018-09-02T22:39:08.390Z,100574.84
2018-09-02T22:41:36.912Z,100567.23
2018-09-02T22:44:05.436Z,100581.31
2018-09-02T22:46:33.856Z,100576.08
2018-09-02T22:49:02.310Z,100569.53
2018-09-02T22:51:31.835Z,100574.70
2018-09-02T22:54:00.305Z,100571.06
2018-09-02T22:56:28.713Z,100559.20
2018-09-02T22:58:57.145Z,100556.10
2018-09-02T23:01:25.654Z,100556.08
2018-09-02T23:03:54.073Z,100555.73
2018-09-02T23:06:22.541Z,100555.95
2018-09-02T23:08:50.969Z,100551.72
2018-09-02T23:11:19.449Z,100544.83
2018-09-02T23:13:47.868Z,100549.47
2018-09-02T23:16:16.333Z,100542.03
2018-09-02T23:18:44.789Z,100545.84
2018-09-02T23:21:13.276Z,100538.98
2018-09-02T23:23:41.739Z,100530.98
2018-09-02T23:26:10.192Z,100527.39
2018-09-02T23:28:38.649Z,100527.39
2018-09-02T23:31:07.084Z,100530.10
2018-09-02T23:33:35.481Z,100520.98
2018-09-02T23:36:03.969Z,100513.94
2018-09-02T23:38:32.472Z,100525.77
2018-09-02T23:41:00.903Z,100521.07
2018-09-02T23:43:29.302Z,100519.73
2018-09-02T23:45:57.724Z,100516.65
2018-09-02T23:48:26.133Z,100511.52
2018-09-02T23:50:54.606Z,100504.14
2018-09-02T23:53:23.112Z,100506.03
2018-09-02T23:55:51.578Z,100503.62
2018-09-02T23:58:20.061Z,100502.49
